createdAt,value
2017-08-30T00:00:30.628Z,22.06
2017-08-30T00:01:44.559Z,22.1
2017-08-30T00:02:58.443Z,22.12
2017-08-30T00:04:12.657Z,22.07
2017-08-30T00:05:26.806Z,22.08
2017-08-30T00:06:40.721Z,21.99
2017-08-30T00:07:54.390Z,22
2017-08-30T00:09:07.896Z,21.97
2017-08-30T00:10:47.066Z,21.89
2017-08-30T00:12:00.765Z,21.89
2017-08-30T00:13:14.292Z,21.85
2017-08-30T00:14:27.817Z,21.81
2017-08-30T00:15:42.077Z,21.81
2017-08-30T00:16:55.987Z,21.8
2017-08-30T00:18:09.491Z,21.75
2017-08-30T00:19:23.597Z,21.77
2017-08-30T00:20:37.106Z,21.75
2017-08-30T00:21:50.934Z,21.77
2017-08-30T00:23:04.845Z,21.68
2017-08-30T00:24:18.422Z,21.74
2017-08-30T00:25:31.972Z,21.66
2017-08-30T00:26:45.814Z,21.7
2017-08-30T00:27:59.311Z,21.65
2017-08-30T00:29:13.183Z,21.68
2017-08-30T00:30:26.709Z,21.69
2017-08-30T00:31:40.565Z,21.69
2017-08-30T00:32:54.222Z,21.62
2017-08-30T00:34:07.760Z,21.54
2017-08-30T00:35:21.567Z,21.53
2017-08-30T00:36:35.086Z,21.54
2017-08-30T00:37:48.935Z,21.54
2017-08-30T00:39:02.929Z,21.56
2017-08-30T00:40:16.498Z,21.62
2017-08-30T00:41:30.295Z,21.59
2017-08-30T00:42:44.154Z,21.53
2017-08-30T00:43:57.648Z,21.56
2017-08-30T00:45:11.185Z,21.65
2017-08-30T00:46:25.057Z,21.59
2017-08-30T00:47:39.207Z,21.54
2017-08-30T00:48:53.267Z,21.54
2017-08-30T00:50:07.165Z,21.48
2017-08-30T00:51:21.231Z,21.54
2017-08-30T00:52:34.721Z,21.53
2017-08-30T00:53:48.569Z,21.43
2017-08-30T00:55:02.131Z,21.45
2017-08-30T00:56:16.362Z,21.48
2017-08-30T00:57:30.183Z,21.53
2017-08-30T00:58:44.019Z,21.51
2017-08-30T00:59:57.843Z,21.53
2017-08-30T01:01:11.790Z,21.5
2017-08-30T01:02:25.402Z,21.51
2017-08-30T01:03:38.916Z,21.5
2017-08-30T01:04:52.425Z,21.4
2017-08-30T01:06:06.608Z,21.44
2017-08-30T01:07:20.119Z,21.41
2017-08-30T01:08:33.674Z,21.43
2017-08-30T01:09:47.184Z,21.43
2017-08-30T01:11:01.250Z,21.43
2017-08-30T01:12:15.099Z,21.44
2017-08-30T01:13:28.656Z,21.44
2017-08-30T01:14:42.390Z,21.32
2017-08-30T01:15:56.257Z,21.32
2017-08-30T01:17:10.097Z,21.37
2017-08-30T01:18:23.949Z,21.35
2017-08-30T01:19:37.443Z,21.3
2017-08-30T01:20:50.949Z,21.3
2017-08-30T01:22:04.441Z,21.28
2017-08-30T01:23:18.033Z,21.3
2017-08-30T01:24:32.351Z,21.28
2017-08-30T01:25:46.180Z,21.26
2017-08-30T01:26:59.700Z,21.22
2017-08-30T01:28:13.196Z,21.23
2017-08-30T01:29:27.034Z,21.23
2017-08-30T01:30:41.854Z,21.2
2017-08-30T01:31:55.417Z,21.28
2017-08-30T01:33:09.263Z,21.23
2017-08-30T01:34:22.785Z,21.15
2017-08-30T01:35:36.290Z,21.15
2017-08-30T01:36:50.130Z,21.17
2017-08-30T01:38:03.682Z,21.17
2017-08-30T01:39:17.218Z,21.17
2017-08-30T01:40:30.725Z,21.15
2017-08-30T01:41:44.270Z,21.22
2017-08-30T01:42:58.113Z,21.08
2017-08-30T01:44:11.621Z,21.07
2017-08-30T01:45:25.363Z,20.92
2017-08-30T01:46:39.372Z,20.9
2017-08-30T01:47:52.873Z,20.98
2017-08-30T01:49:06.743Z,20.93
2017-08-30T01:50:20.819Z,20.96
2017-08-30T01:51:34.673Z,20.98
2017-08-30T01:52:48.234Z,21.07
2017-08-30T01:54:01.775Z,21.01
2017-08-30T01:55:15.573Z,20.92
2017-08-30T01:56:29.100Z,21.01
2017-08-30T01:57:42.841Z,20.92
2017-08-30T01:58:56.653Z,20.98
2017-08-30T02:00:10.163Z,20.95
2017-08-30T02:01:23.974Z,21.07
2017-08-30T02:02:37.473Z,21.04
2017-08-30T02:03:51.439Z,21
2017-08-30T02:05:05.071Z,20.98
2017-08-30T02:06:18.571Z,21.04
2017-08-30T02:07:32.374Z,21.03
2017-08-30T02:08:45.867Z,20.93
2017-08-30T02:09:59.350Z,20.96
2017-08-30T02:11:12.848Z,20.9
2017-08-30T02:12:26.891Z,20.9
2017-08-30T02:13:41.269Z,20.85
2017-08-30T02:14:54.825Z,20.92
2017-08-30T02:16:09.047Z,20.88
2017-08-30T02:17:22.600Z,20.86
2017-08-30T02:18:36.096Z,20.88
2017-08-30T02:19:49.884Z,20.85
2017-08-30T02:21:03.414Z,20.88
2017-08-30T02:22:16.933Z,20.86
2017-08-30T02:23:30.424Z,20.88
2017-08-30T02:24:43.943Z,20.9
2017-08-30T02:25:57.752Z,20.82
2017-08-30T02:27:11.295Z,20.82
2017-08-30T02:28:24.831Z,20.83
2017-08-30T02:29:38.326Z,20.93
2017-08-30T02:30:51.816Z,20.89
2017-08-30T02:32:05.674Z,20.85
2017-08-30T02:33:19.196Z,20.86
2017-08-30T02:34:32.711Z,20.77
2017-08-30T02:35:46.227Z,20.86
2017-08-30T02:36:59.742Z,20.85
2017-08-30T02:38:13.568Z,20.85
2017-08-30T02:39:27.161Z,20.82
2017-08-30T02:40:40.659Z,20.77
2017-08-30T02:41:54.177Z,20.78
2017-08-30T02:43:07.866Z,20.7
2017-08-30T02:44:21.696Z,20.68
2017-08-30T02:45:35.528Z,20.73
2017-08-30T02:46:49.013Z,20.66
2017-08-30T02:48:02.516Z,20.58
2017-08-30T02:49:16.465Z,20.58
2017-08-30T02:50:31.119Z,20.64
2017-08-30T02:51:44.618Z,20.71
2017-08-30T02:52:58.137Z,20.67
2017-08-30T02:54:11.741Z,20.73
2017-08-30T02:55:25.578Z,20.58
2017-08-30T02:56:39.580Z,20.67
2017-08-30T02:57:53.797Z,20.58
2017-08-30T02:59:07.374Z,20.66
2017-08-30T03:00:20.891Z,20.68
2017-08-30T03:01:34.379Z,20.63
2017-08-30T03:02:48.173Z,20.7
2017-08-30T03:04:01.767Z,20.68
2017-08-30T03:05:15.340Z,20.77
2017-08-30T03:06:28.855Z,20.66
2017-08-30T03:07:42.343Z,20.59
2017-08-30T03:08:56.137Z,20.58
2017-08-30T03:10:09.674Z,20.6
2017-08-30T03:11:23.312Z,20.58
2017-08-30T03:12:36.838Z,20.6
2017-08-30T03:13:51.017Z,20.59
2017-08-30T03:15:05.126Z,20.59
2017-08-30T03:16:18.629Z,20.55
2017-08-30T03:17:32.152Z,20.58
2017-08-30T03:18:46.122Z,20.59
2017-08-30T03:20:00.387Z,20.52
2017-08-30T03:21:14.597Z,20.59
2017-08-30T03:22:28.627Z,20.55
2017-08-30T03:23:42.126Z,20.64
2017-08-30T03:24:55.644Z,20.53
2017-08-30T03:26:09.220Z,20.52
2017-08-30T03:27:23.087Z,20.55
2017-08-30T03:28:36.620Z,20.6
2017-08-30T03:29:50.456Z,20.53
2017-08-30T03:31:04.005Z,20.56
2017-08-30T03:32:17.513Z,20.52
2017-08-30T03:33:31.315Z,20.52
2017-08-30T03:34:44.825Z,20.5
2017-08-30T03:35:58.399Z,20.5
2017-08-30T03:37:12.233Z,20.58
2017-08-30T03:38:25.719Z,20.53
2017-08-30T03:39:39.558Z,20.55
2017-08-30T03:40:53.187Z,20.5
2017-08-30T03:42:06.685Z,20.55
2017-08-30T03:43:20.191Z,20.37
2017-08-30T03:44:34.250Z,20.42
2017-08-30T03:45:48.047Z,20.44
2017-08-30T03:47:01.531Z,20.5
2017-08-30T03:48:15.033Z,20.42
2017-08-30T03:49:28.556Z,20.21
2017-08-30T03:50:42.393Z,20.32
2017-08-30T03:51:56.211Z,20.34
2017-08-30T03:53:09.708Z,20.46
2017-08-30T03:54:23.308Z,20.37
2017-08-30T03:55:37.691Z,20.42
2017-08-30T03:56:51.183Z,20.42
2017-08-30T03:58:05.012Z,20.34
2017-08-30T03:59:18.529Z,20.49
2017-08-30T04:00:32.358Z,20.36
2017-08-30T04:01:46.067Z,20.39
2017-08-30T04:02:59.576Z,20.46
2017-08-30T04:04:13.741Z,20.37
2017-08-30T04:05:27.319Z,20.36
2017-08-30T04:06:40.824Z,20.26
2017-08-30T04:07:54.740Z,20.44
2017-08-30T04:09:08.272Z,20.37
2017-08-30T04:10:22.072Z,20.44
2017-08-30T04:11:35.640Z,20.34
2017-08-30T04:12:49.398Z,20.37
2017-08-30T04:14:03.243Z,20.36
2017-08-30T04:15:16.882Z,20.36
2017-08-30T04:16:30.710Z,20.46
2017-08-30T04:17:44.214Z,20.34
2017-08-30T04:18:57.725Z,20.46
2017-08-30T04:20:11.235Z,20.4
2017-08-30T04:21:24.795Z,20.48
2017-08-30T04:22:38.622Z,20.49
2017-08-30T04:23:52.136Z,20.55
2017-08-30T04:25:05.960Z,20.52
2017-08-30T04:26:19.494Z,20.49
2017-08-30T04:27:33.005Z,20.44
2017-08-30T04:28:46.826Z,20.49
2017-08-30T04:30:00.326Z,20.42
2017-08-30T04:31:13.836Z,20.4
2017-08-30T04:32:27.373Z,20.49
2017-08-30T04:33:40.859Z,20.4
2017-08-30T04:34:54.676Z,20.4
2017-08-30T04:36:08.527Z,20.48
2017-08-30T04:37:22.136Z,20.49
2017-08-30T04:38:35.735Z,20.48
2017-08-30T04:39:49.224Z,20.49
2017-08-30T04:41:03.383Z,20.4
2017-08-30T04:42:16.894Z,20.5
2017-08-30T04:43:30.400Z,20.56
2017-08-30T04:44:43.925Z,20.58
2017-08-30T04:45:57.426Z,20.59
2017-08-30T04:47:11.212Z,20.67
2017-08-30T04:48:24.721Z,20.67
2017-08-30T04:49:38.277Z,20.74
2017-08-30T04:50:51.788Z,20.86
2017-08-30T04:52:05.306Z,20.85
2017-08-30T04:53:19.258Z,20.89
2017-08-30T04:54:32.799Z,20.95
2017-08-30T04:55:46.352Z,20.98
2017-08-30T04:56:59.867Z,21.07
2017-08-30T04:58:13.359Z,21.08
2017-08-30T04:59:27.273Z,21.15
2017-08-30T05:00:41.674Z,21.22
2017-08-30T05:01:55.530Z,21.41
2017-08-30T05:03:09.034Z,21.43
2017-08-30T05:04:22.822Z,21.5
2017-08-30T05:05:36.773Z,21.48
2017-08-30T05:06:50.279Z,21.53
2017-08-30T05:08:04.120Z,21.58
2017-08-30T05:09:17.649Z,21.58
2017-08-30T05:10:31.160Z,21.69
2017-08-30T05:11:45.044Z,21.75
2017-08-30T05:12:58.728Z,21.8
2017-08-30T05:14:12.233Z,21.94
2017-08-30T05:15:25.761Z,21.91
2017-08-30T05:16:39.479Z,21.99
2017-08-30T05:17:53.356Z,22.01
2017-08-30T05:19:06.846Z,21.97
2017-08-30T05:20:20.495Z,22.03
2017-08-30T05:21:34.342Z,22.1
2017-08-30T05:22:48.340Z,22.16
2017-08-30T05:24:02.262Z,22.18
2017-08-30T05:25:15.779Z,22.16
2017-08-30T05:26:29.281Z,22.03
2017-08-30T05:27:42.827Z,22.1
2017-08-30T05:28:56.532Z,22.07
2017-08-30T05:30:10.364Z,22.07
2017-08-30T05:31:23.877Z,22.16
2017-08-30T05:32:37.725Z,22.26
2017-08-30T05:33:51.225Z,22.25
2017-08-30T05:35:04.801Z,22.26
2017-08-30T05:36:18.650Z,22.28
2017-08-30T05:37:32.171Z,22.31
2017-08-30T05:38:46.000Z,22.37
2017-08-30T05:39:59.515Z,22.46
2017-08-30T05:41:13.007Z,22.51
2017-08-30T05:42:26.871Z,22.55
2017-08-30T05:43:40.381Z,22.56
2017-08-30T05:44:53.895Z,22.49
2017-08-30T05:46:07.863Z,22.44
2017-08-30T05:47:21.399Z,22.51
2017-08-30T05:48:35.224Z,22.53
2017-08-30T05:49:49.087Z,22.46
2017-08-30T05:51:03.102Z,22.43
2017-08-30T05:52:29.718Z,22.44
2017-08-30T05:53:43.620Z,22.41
2017-08-30T05:54:57.167Z,22.49
2017-08-30T05:56:10.669Z,22.41
2017-08-30T05:57:24.184Z,22.38
2017-08-30T05:58:37.696Z,22.34
2017-08-30T05:59:51.855Z,22.36
2017-08-30T06:01:05.352Z,22.31
2017-08-30T06:02:18.879Z,22.38
2017-08-30T06:03:32.882Z,22.36
2017-08-30T06:04:46.786Z,22.44
2017-08-30T06:06:00.671Z,22.52
2017-08-30T06:07:14.179Z,22.43
2017-08-30T06:08:27.720Z,22.53
2017-08-30T06:09:41.226Z,22.49
2017-08-30T06:10:54.973Z,22.44
2017-08-30T06:12:08.792Z,22.62
2017-08-30T06:13:22.288Z,22.65
2017-08-30T06:14:36.129Z,22.59
2017-08-30T06:15:49.995Z,22.71
2017-08-30T06:17:03.545Z,22.56
2017-08-30T06:18:17.729Z,22.7
2017-08-30T06:19:31.227Z,22.71
2017-08-30T06:20:44.818Z,22.76
2017-08-30T06:21:58.303Z,22.68
2017-08-30T06:23:12.078Z,22.7
2017-08-30T06:24:25.882Z,22.78
2017-08-30T06:25:39.392Z,22.84
2017-08-30T06:26:52.906Z,22.81
2017-08-30T06:28:06.557Z,22.93
2017-08-30T06:29:20.052Z,22.99
2017-08-30T06:30:33.869Z,22.88
2017-08-30T06:31:47.379Z,22.78
2017-08-30T06:33:00.917Z,22.84
2017-08-30T06:34:14.472Z,22.96
2017-08-30T06:35:27.994Z,22.96
2017-08-30T06:36:41.799Z,22.99
2017-08-30T06:37:55.326Z,23.1
2017-08-30T06:39:08.875Z,23.07
2017-08-30T06:40:22.438Z,23.11
2017-08-30T06:41:36.435Z,23.23
2017-08-30T06:42:50.273Z,23.18
2017-08-30T06:44:03.811Z,23.34
2017-08-30T06:45:17.377Z,23.25
2017-08-30T06:46:30.912Z,23.25
2017-08-30T06:47:44.419Z,23.18
2017-08-30T06:48:58.573Z,23.4
2017-08-30T06:50:12.277Z,23.54
2017-08-30T06:51:26.113Z,23.55
2017-08-30T06:52:39.649Z,23.73
2017-08-30T06:53:53.167Z,23.64
2017-08-30T06:55:06.967Z,23.67
2017-08-30T06:56:20.478Z,23.71
2017-08-30T06:57:34.960Z,23.62
2017-08-30T06:58:48.548Z,23.64
2017-08-30T07:00:02.134Z,23.71
2017-08-30T07:01:16.020Z,23.79
2017-08-30T07:02:29.532Z,23.89
2017-08-30T07:03:43.028Z,23.99
2017-08-30T07:04:56.746Z,24.07
2017-08-30T07:06:10.313Z,24.19
2017-08-30T07:07:24.477Z,24.32
2017-08-30T07:08:37.987Z,24.48
2017-08-30T07:09:51.495Z,24.46
2017-08-30T07:11:05.008Z,24.61
2017-08-30T07:12:18.839Z,24.68
2017-08-30T07:13:32.678Z,24.68
2017-08-30T07:14:46.179Z,24.75
2017-08-30T07:15:59.688Z,24.86
2017-08-30T07:17:13.265Z,24.86
2017-08-30T07:18:26.808Z,24.92
2017-08-30T07:19:40.659Z,24.85
2017-08-30T07:20:54.179Z,24.77
2017-08-30T07:22:07.821Z,24.74
2017-08-30T07:23:21.348Z,24.75
2017-08-30T07:24:34.869Z,24.84
2017-08-30T07:25:48.705Z,24.93
2017-08-30T07:27:02.213Z,24.92
2017-08-30T07:28:15.716Z,24.74
2017-08-30T07:29:29.583Z,24.68
2017-08-30T07:30:43.084Z,24.65
2017-08-30T07:31:56.894Z,24.63
2017-08-30T07:33:10.772Z,24.68
2017-08-30T07:34:24.304Z,24.77
2017-08-30T07:35:37.862Z,25
2017-08-30T07:36:51.787Z,25.03
2017-08-30T07:38:05.968Z,25.22
2017-08-30T07:39:19.821Z,25.24
2017-08-30T07:40:33.676Z,25.36
2017-08-30T07:41:47.218Z,25.4
2017-08-30T07:43:00.795Z,25.31
2017-08-30T07:44:14.665Z,25.34
2017-08-30T07:45:28.207Z,25.29
2017-08-30T07:46:41.708Z,25.31
2017-08-30T07:47:55.577Z,25.29
2017-08-30T07:49:09.106Z,25.43
2017-08-30T07:50:22.917Z,25.58
2017-08-30T07:51:36.460Z,25.62
2017-08-30T07:52:50.005Z,25.63
2017-08-30T07:54:03.524Z,25.68
2017-08-30T07:55:17.064Z,25.62
2017-08-30T07:56:30.931Z,25.73
2017-08-30T07:57:44.441Z,25.73
2017-08-30T07:58:58.513Z,25.73
2017-08-30T08:00:12.400Z,25.63
2017-08-30T08:01:25.940Z,25.67
2017-08-30T08:02:40.122Z,25.66
2017-08-30T08:03:53.698Z,25.52
2017-08-30T08:05:07.221Z,25.55
2017-08-30T08:06:20.884Z,25.51
2017-08-30T08:07:34.397Z,25.68
2017-08-30T08:08:48.570Z,25.63
2017-08-30T08:10:02.106Z,25.73
2017-08-30T08:11:15.608Z,25.73
2017-08-30T08:12:29.222Z,25.81
2017-08-30T08:13:42.721Z,25.78
2017-08-30T08:14:56.530Z,25.67
2017-08-30T08:16:10.021Z,25.7
2017-08-30T08:17:23.559Z,25.62
2017-08-30T08:18:37.074Z,25.66
2017-08-30T08:19:50.782Z,25.66
2017-08-30T08:21:04.736Z,25.66
2017-08-30T08:22:18.619Z,25.76
2017-08-30T08:23:32.673Z,25.88
2017-08-30T08:24:46.211Z,25.78
2017-08-30T08:25:59.770Z,25.78
2017-08-30T08:27:13.934Z,25.88
2017-08-30T08:28:27.850Z,25.96
2017-08-30T08:29:41.376Z,25.99
2017-08-30T08:30:54.947Z,26.03
2017-08-30T08:32:08.548Z,26.22
2017-08-30T08:33:22.394Z,26.22
2017-08-30T08:34:35.954Z,26.36
2017-08-30T08:35:49.464Z,26.41
2017-08-30T08:37:03.147Z,26.42
2017-08-30T08:38:16.683Z,26.53
2017-08-30T08:39:31.012Z,26.55
2017-08-30T08:40:44.596Z,26.55
2017-08-30T08:41:58.466Z,26.51
2017-08-30T08:43:11.976Z,26.55
2017-08-30T08:44:25.713Z,26.67
2017-08-30T08:45:39.608Z,26.66
2017-08-30T08:46:53.475Z,26.83
2017-08-30T08:48:07.003Z,26.82
2017-08-30T08:49:20.528Z,26.83
2017-08-30T08:50:34.064Z,26.64
2017-08-30T08:51:47.896Z,26.71
2017-08-30T08:53:01.443Z,26.88
2017-08-30T08:54:15.163Z,26.74
2017-08-30T08:55:29.028Z,26.91
2017-08-30T08:56:42.694Z,26.93
2017-08-30T08:57:57.735Z,26.93
2017-08-30T08:59:11.463Z,27.08
2017-08-30T09:00:24.968Z,27.07
2017-08-30T09:01:38.544Z,27.11
2017-08-30T09:02:52.056Z,27.15
2017-08-30T09:04:05.924Z,27.08
2017-08-30T09:05:19.506Z,27.11
2017-08-30T09:06:33.079Z,27.15
2017-08-30T09:07:46.607Z,27.15
2017-08-30T09:09:00.228Z,27.19
2017-08-30T09:10:14.079Z,27.2
2017-08-30T09:11:27.795Z,27.22
2017-08-30T09:12:42.675Z,27.23
2017-08-30T09:13:57.823Z,27.23
2017-08-30T09:15:11.697Z,27.2
2017-08-30T09:16:25.678Z,27.2
2017-08-30T09:17:39.948Z,27.23
2017-08-30T09:18:53.542Z,27.34
2017-08-30T09:20:07.103Z,27.23
2017-08-30T09:21:21.024Z,27.22
2017-08-30T09:22:35.697Z,27.13
2017-08-30T09:23:49.275Z,27.13
2017-08-30T09:25:02.831Z,27.18
2017-08-30T09:26:16.406Z,27.26
2017-08-30T09:27:29.969Z,27.2
2017-08-30T09:28:43.813Z,27.34
2017-08-30T09:29:57.722Z,27.4
2017-08-30T09:31:11.665Z,27.38
2017-08-30T09:32:25.254Z,27.47
2017-08-30T09:33:38.870Z,27.52
2017-08-30T09:34:52.752Z,27.5
2017-08-30T09:36:06.366Z,27.55
2017-08-30T09:37:19.994Z,27.61
2017-08-30T09:38:33.548Z,27.57
2017-08-30T09:39:47.116Z,27.58
2017-08-30T09:41:00.959Z,27.57
2017-08-30T09:42:14.518Z,27.58
2017-08-30T09:43:28.084Z,27.64
2017-08-30T09:44:41.624Z,27.58
2017-08-30T09:45:55.179Z,27.68
2017-08-30T09:47:09.299Z,27.75
2017-08-30T09:48:22.827Z,27.97
2017-08-30T09:49:36.384Z,27.95
2017-08-30T09:50:50.088Z,28
2017-08-30T09:52:04.219Z,28.16
2017-08-30T09:53:18.074Z,28.34
2017-08-30T09:54:32.149Z,28.34
2017-08-30T09:55:46.268Z,28.52
2017-08-30T09:56:59.805Z,28.64
2017-08-30T09:58:13.337Z,28.83
2017-08-30T09:59:27.231Z,29
2017-08-30T10:00:40.754Z,29.02
2017-08-30T10:01:54.409Z,29.09
2017-08-30T10:03:07.944Z,29.13
2017-08-30T10:04:21.793Z,29.15
2017-08-30T10:05:35.663Z,29.3
2017-08-30T10:06:49.191Z,29.35
2017-08-30T10:08:02.716Z,29.18
2017-08-30T10:09:16.223Z,29.09
2017-08-30T10:10:29.937Z,29.03
2017-08-30T10:11:43.760Z,29.05
2017-08-30T10:12:57.836Z,28.97
2017-08-30T10:14:11.358Z,29.05
2017-08-30T10:15:24.900Z,28.94
2017-08-30T10:16:38.647Z,28.93
2017-08-30T10:17:52.475Z,28.82
2017-08-30T10:19:06.145Z,28.8
2017-08-30T10:20:19.667Z,28.78
2017-08-30T10:21:33.556Z,28.94
2017-08-30T10:22:47.368Z,29.02
2017-08-30T10:24:01.383Z,29.15
2017-08-30T10:25:15.677Z,29.21
2017-08-30T10:26:29.185Z,29.31
2017-08-30T10:27:42.758Z,29.35
2017-08-30T10:28:56.282Z,29.37
2017-08-30T10:30:10.136Z,29.42
2017-08-30T10:31:24.250Z,29.43
2017-08-30T10:32:37.858Z,29.35
2017-08-30T10:33:51.738Z,29.47
2017-08-30T10:35:05.233Z,29.44
2017-08-30T10:36:19.032Z,29.37
2017-08-30T10:37:32.634Z,29.46
2017-08-30T10:38:46.127Z,29.47
2017-08-30T10:39:59.658Z,29.35
2017-08-30T10:41:13.859Z,29.28
2017-08-30T10:42:27.710Z,29.37
2017-08-30T10:43:41.216Z,29.55
2017-08-30T10:44:54.787Z,29.59
2017-08-30T10:46:08.319Z,29.76
2017-08-30T10:47:22.178Z,29.62
2017-08-30T10:48:36.534Z,29.73
2017-08-30T10:49:50.064Z,29.73
2017-08-30T10:51:03.589Z,29.71
2017-08-30T10:52:17.165Z,29.68
2017-08-30T10:53:30.688Z,29.73
2017-08-30T10:54:44.502Z,29.71
2017-08-30T10:55:58.700Z,29.77
2017-08-30T10:57:12.268Z,29.76
2017-08-30T10:58:26.017Z,29.73
2017-08-30T10:59:40.029Z,29.76
2017-08-30T11:00:54.295Z,29.57
2017-08-30T11:02:07.845Z,29.52
2017-08-30T11:03:21.386Z,29.4
2017-08-30T11:04:35.000Z,29.37
2017-08-30T11:05:48.547Z,29.35
2017-08-30T11:07:02.400Z,29.39
2017-08-30T11:08:15.948Z,29.4
2017-08-30T11:09:29.694Z,29.47
2017-08-30T11:10:43.224Z,29.43
2017-08-30T11:11:56.892Z,29.46
2017-08-30T11:13:10.753Z,29.58
2017-08-30T11:14:24.291Z,29.62
2017-08-30T11:15:37.827Z,29.67
2017-08-30T11:16:51.390Z,29.59
2017-08-30T11:18:04.974Z,29.73
2017-08-30T11:19:18.928Z,29.89
2017-08-30T11:20:32.476Z,29.87
2017-08-30T11:21:46.093Z,30.01
2017-08-30T11:22:59.665Z,30.1
2017-08-30T11:24:13.236Z,30.08
2017-08-30T11:25:27.104Z,30.03
2017-08-30T11:26:40.807Z,30.13
2017-08-30T11:27:54.340Z,30.14
2017-08-30T11:29:07.910Z,30.06
2017-08-30T11:30:21.463Z,30.06
2017-08-30T11:31:35.305Z,30.08
2017-08-30T11:32:48.841Z,30.05
2017-08-30T11:34:02.389Z,29.96
2017-08-30T11:35:15.942Z,30.05
2017-08-30T11:36:29.461Z,30.08
2017-08-30T11:37:43.421Z,30.08
2017-08-30T11:38:57.162Z,30.1
2017-08-30T11:40:10.706Z,30.05
2017-08-30T11:41:24.830Z,30.06
2017-08-30T11:42:38.414Z,29.98
2017-08-30T11:43:52.290Z,29.95
2017-08-30T11:45:05.843Z,30.1
2017-08-30T11:46:19.375Z,30.16
2017-08-30T11:47:33.041Z,30.23
2017-08-30T11:48:46.609Z,30.21
2017-08-30T11:50:00.473Z,30.29
2017-08-30T11:51:14.033Z,30.31
2017-08-30T11:52:27.946Z,30.33
2017-08-30T11:53:41.732Z,30.33
2017-08-30T11:54:55.311Z,30.26
2017-08-30T11:56:09.203Z,30.33
2017-08-30T11:57:23.058Z,30.38
2017-08-30T11:58:36.682Z,30.32
2017-08-30T11:59:50.776Z,30.24
2017-08-30T12:01:04.344Z,30.2
2017-08-30T12:02:18.264Z,30.11
2017-08-30T12:03:32.207Z,30.2
2017-08-30T12:04:46.231Z,30.32
2017-08-30T12:05:59.757Z,30.31
2017-08-30T12:07:13.500Z,30.49
2017-08-30T12:08:27.354Z,30.48
2017-08-30T12:09:40.913Z,30.61
2017-08-30T12:10:54.793Z,30.74
2017-08-30T12:12:08.361Z,30.71
2017-08-30T12:13:22.263Z,30.92
2017-08-30T12:14:36.487Z,30.95
2017-08-30T12:15:50.094Z,30.85
2017-08-30T12:17:03.773Z,30.98
2017-08-30T12:18:17.337Z,31.05
2017-08-30T12:19:30.884Z,30.93
2017-08-30T12:20:44.840Z,31
2017-08-30T12:21:58.735Z,30.93
2017-08-30T12:23:12.281Z,30.83
2017-08-30T12:24:26.185Z,31.02
2017-08-30T12:25:39.840Z,30.98
2017-08-30T12:26:53.704Z,30.95
2017-08-30T12:28:07.262Z,31.05
2017-08-30T12:29:21.156Z,31.11
2017-08-30T12:30:35.071Z,31.07
2017-08-30T12:31:48.667Z,30.91
2017-08-30T12:33:02.786Z,30.77
2017-08-30T12:34:16.336Z,30.76
2017-08-30T12:35:29.871Z,30.88
2017-08-30T12:36:43.469Z,30.93
2017-08-30T12:37:57.008Z,30.96
2017-08-30T12:39:10.872Z,31.23
2017-08-30T12:40:24.510Z,31.32
2017-08-30T12:41:38.073Z,31.54
2017-08-30T12:42:51.615Z,31.7
2017-08-30T12:44:05.507Z,31.79
2017-08-30T12:45:19.391Z,31.67
2017-08-30T12:46:33.585Z,31.73
2017-08-30T12:47:47.805Z,31.67
2017-08-30T12:49:01.372Z,31.62
2017-08-30T12:50:14.993Z,31.45
2017-08-30T12:51:29.454Z,31.35
2017-08-30T12:52:43.366Z,31.26
2017-08-30T12:53:56.938Z,31.37
2017-08-30T12:55:10.486Z,31.29
2017-08-30T12:56:24.466Z,31.32
2017-08-30T12:57:38.342Z,31.28
2017-08-30T12:58:51.929Z,31.22
2017-08-30T13:00:05.477Z,31.23
2017-08-30T13:01:19.020Z,31.15
2017-08-30T13:02:32.630Z,31.25
2017-08-30T13:03:46.537Z,31.33
2017-08-30T13:05:00.382Z,31.5
2017-08-30T13:06:14.059Z,31.42
2017-08-30T13:07:27.577Z,31.55
2017-08-30T13:08:41.092Z,31.7
2017-08-30T13:09:54.929Z,31.62
2017-08-30T13:11:08.456Z,31.59
2017-08-30T13:12:22.036Z,31.72
2017-08-30T13:13:36.001Z,31.62
2017-08-30T13:14:49.589Z,31.51
2017-08-30T13:16:03.421Z,31.35
2017-08-30T13:17:16.978Z,31.32
2017-08-30T13:18:30.825Z,31.08
2017-08-30T13:19:44.622Z,31.04
2017-08-30T13:20:58.486Z,31
2017-08-30T13:22:12.345Z,31.1
2017-08-30T13:23:25.935Z,31.15
2017-08-30T13:24:39.471Z,31.07
2017-08-30T13:25:53.373Z,31.11
2017-08-30T13:27:07.297Z,31.08
2017-08-30T13:28:21.558Z,30.98
2017-08-30T13:29:35.188Z,31.04
2017-08-30T13:30:48.763Z,31.13
2017-08-30T13:32:02.659Z,31.25
2017-08-30T13:33:16.968Z,31.26
2017-08-30T13:34:30.845Z,31.33
2017-08-30T13:35:44.463Z,31.44
2017-08-30T13:36:58.023Z,31.6
2017-08-30T13:38:11.619Z,31.62
2017-08-30T13:39:25.235Z,31.7
2017-08-30T13:40:39.183Z,31.69
2017-08-30T13:41:52.723Z,31.73
2017-08-30T13:43:06.630Z,31.54
2017-08-30T13:44:20.160Z,31.37
2017-08-30T13:45:33.702Z,31.36
2017-08-30T13:46:47.840Z,31.29
2017-08-30T13:48:01.370Z,31.29
2017-08-30T13:49:14.940Z,31.33
2017-08-30T13:50:28.467Z,31.33
2017-08-30T13:51:42.004Z,31.35
2017-08-30T13:52:55.858Z,31.36
2017-08-30T13:54:09.451Z,31.3
2017-08-30T13:55:23.708Z,31.13
2017-08-30T13:56:37.258Z,31.05
2017-08-30T13:57:50.782Z,31.14
2017-08-30T13:59:04.663Z,31.15
2017-08-30T14:00:18.584Z,31.07
2017-08-30T14:01:32.129Z,31.11
2017-08-30T14:02:45.679Z,31.11
2017-08-30T14:03:59.681Z,31.22
2017-08-30T14:05:13.618Z,31.23
2017-08-30T14:06:27.188Z,31.18
2017-08-30T14:07:40.898Z,31.28
2017-08-30T14:08:54.751Z,31.3
2017-08-30T14:10:40.365Z,31.08
2017-08-30T14:11:54.118Z,31.13
2017-08-30T14:13:07.664Z,31.18
2017-08-30T14:14:21.245Z,31.22
2017-08-30T14:15:35.253Z,31.32
2017-08-30T14:16:49.131Z,31.23
2017-08-30T14:18:02.695Z,31.29
2017-08-30T14:19:16.201Z,31.33
2017-08-30T14:20:42.796Z,31.36
2017-08-30T14:21:56.652Z,31.35
2017-08-30T14:23:10.172Z,31.32
2017-08-30T14:24:23.796Z,31.3
2017-08-30T14:25:37.343Z,31.3
2017-08-30T14:26:50.899Z,31.57
2017-08-30T14:28:05.003Z,31.55
2017-08-30T14:29:18.570Z,31.66
2017-08-30T14:30:32.692Z,31.66
2017-08-30T14:31:46.260Z,31.59
2017-08-30T14:32:59.875Z,31.57
2017-08-30T14:34:13.719Z,31.35
2017-08-30T14:35:27.620Z,31.25
2017-08-30T14:36:41.200Z,31.41
2017-08-30T14:37:54.737Z,31.22
2017-08-30T14:39:08.272Z,31.04
2017-08-30T14:40:22.213Z,31.04
2017-08-30T14:41:35.757Z,30.96
2017-08-30T14:42:49.428Z,30.96
2017-08-30T14:44:03.000Z,30.93
2017-08-30T14:45:16.611Z,30.99
2017-08-30T14:46:30.455Z,31
2017-08-30T14:47:43.989Z,31.02
2017-08-30T14:48:57.946Z,30.96
2017-08-30T14:50:11.563Z,30.86
2017-08-30T14:51:25.272Z,30.93
2017-08-30T14:52:39.080Z,30.81
2017-08-30T14:53:52.625Z,30.95
2017-08-30T14:55:06.510Z,30.98
2017-08-30T14:56:20.036Z,30.95
2017-08-30T14:57:33.575Z,30.99
2017-08-30T14:58:47.421Z,30.83
2017-08-30T15:00:00.980Z,30.88
2017-08-30T15:01:14.878Z,30.76
2017-08-30T15:02:28.478Z,30.8
2017-08-30T15:03:42.152Z,30.83
2017-08-30T15:04:55.988Z,30.67
2017-08-30T15:06:09.579Z,30.55
2017-08-30T15:07:23.123Z,30.4
2017-08-30T15:08:36.650Z,30.46
2017-08-30T15:09:50.481Z,30.35
2017-08-30T15:11:04.494Z,30.4
2017-08-30T15:12:18.516Z,30.29
2017-08-30T15:13:32.021Z,30.29
2017-08-30T15:14:45.558Z,30.16
2017-08-30T15:15:59.077Z,30.27
2017-08-30T15:17:13.242Z,30.24
2017-08-30T15:18:26.804Z,30.32
2017-08-30T15:19:40.341Z,30.2
2017-08-30T15:20:53.889Z,30.21
2017-08-30T15:22:07.808Z,30.21
2017-08-30T15:23:21.655Z,30.11
2017-08-30T15:24:36.251Z,30.13
2017-08-30T15:25:49.856Z,30.13
2017-08-30T15:27:03.396Z,30.2
2017-08-30T15:28:17.272Z,30.23
2017-08-30T15:29:31.448Z,30.24
2017-08-30T15:30:44.966Z,30.23
2017-08-30T15:31:58.491Z,30.08
2017-08-30T15:33:12.149Z,29.94
2017-08-30T15:34:25.660Z,30.05
2017-08-30T15:35:39.472Z,29.99
2017-08-30T15:36:53.033Z,29.83
2017-08-30T15:38:06.591Z,29.9
2017-08-30T15:39:20.120Z,29.94
2017-08-30T15:40:33.670Z,30.01
2017-08-30T15:41:47.559Z,29.81
2017-08-30T15:43:01.233Z,29.77
2017-08-30T15:44:16.147Z,29.77
2017-08-30T15:45:29.693Z,29.73
2017-08-30T15:46:43.234Z,29.61
2017-08-30T15:47:57.072Z,29.53
2017-08-30T15:49:10.867Z,29.46
2017-08-30T15:50:24.410Z,29.44
2017-08-30T15:51:37.932Z,29.44
2017-08-30T15:52:51.457Z,29.44
2017-08-30T15:54:05.355Z,29.37